createdAt,value
2023-05-09T00:02:20.940Z,53.24
2023-05-09T00:04:48.638Z,53.37
2023-05-09T00:07:15.823Z,53.20
2023-05-09T00:09:42.957Z,53.21
2023-05-09T00:12:10.084Z,53.37
2023-05-09T00:14:37.131Z,53.25
2023-05-09T00:17:04.885Z,53.39
2023-05-09T00:19:32.405Z,53.38
2023-05-09T00:21:59.587Z,53.55
2023-05-09T00:24:26.576Z,53.29
2023-05-09T00:26:53.452Z,53.36
2023-05-09T00:29:20.501Z,53.68
2023-05-09T00:31:47.545Z,53.61
2023-05-09T00:34:14.601Z,53.71
2023-05-09T00:36:45.263Z,54.06
2023-05-09T00:39:13.351Z,53.75
2023-05-09T00:41:40.376Z,53.72
2023-05-09T00:44:07.854Z,53.81
2023-05-09T00:46:34.930Z,54.06
2023-05-09T00:49:02.325Z,54.22
2023-05-09T00:51:29.999Z,54.29
2023-05-09T00:53:57.099Z,54.09
2023-05-09T00:56:26.259Z,53.85
2023-05-09T00:58:54.087Z,54.22
2023-05-09T01:01:21.240Z,54.02
2023-05-09T01:03:48.764Z,54.17
2023-05-09T01:06:48.359Z,54.11
2023-05-09T01:09:30.662Z,54.17
2023-05-09T01:12:21.988Z,53.96
2023-05-09T01:14:55.434Z,54.17
2023-05-09T01:17:50.743Z,54.25
2023-05-09T01:20:40.014Z,53.96
2023-05-09T01:23:16.093Z,54.36
2023-05-09T01:26:04.862Z,54.21
2023-05-09T01:28:43.853Z,54.43
2023-05-09T01:31:11.275Z,54.65
2023-05-09T01:33:40.987Z,54.61
2023-05-09T01:36:15.482Z,54.53
2023-05-09T01:38:44.638Z,54.65
2023-05-09T01:41:14.388Z,54.41
2023-05-09T01:43:43.331Z,54.70
2023-05-09T01:46:19.601Z,54.70
2023-05-09T01:48:46.957Z,54.50
2023-05-09T01:51:16.577Z,54.23
2023-05-09T01:53:44.532Z,53.94
2023-05-09T01:56:13.005Z,53.79
2023-05-09T01:58:41.475Z,53.77
2023-05-09T02:01:10.079Z,53.44
2023-05-09T02:03:38.678Z,53.30
2023-05-09T02:06:06.368Z,53.27
2023-05-09T02:08:34.164Z,53.27
2023-05-09T02:11:01.059Z,53.29
2023-05-09T02:13:28.221Z,53.34
2023-05-09T02:15:55.685Z,53.29
2023-05-09T02:18:22.935Z,53.25
2023-05-09T02:20:49.925Z,53.50
2023-05-09T02:23:18.507Z,53.59
2023-05-09T02:25:46.820Z,53.69
2023-05-09T02:28:14.198Z,53.74
2023-05-09T02:30:44.442Z,53.76
2023-05-09T02:33:13.909Z,53.52
2023-05-09T02:35:44.732Z,53.55
2023-05-09T02:38:13.515Z,53.50
2023-05-09T02:40:43.591Z,53.83
2023-05-09T02:43:10.985Z,53.81
2023-05-09T02:45:38.048Z,53.81
2023-05-09T02:48:08.344Z,53.83
2023-05-09T02:50:36.034Z,53.69
2023-05-09T02:53:02.972Z,53.94
2023-05-09T02:55:29.967Z,53.55
2023-05-09T02:58:05.625Z,53.79
2023-05-09T03:00:40.517Z,53.82
2023-05-09T03:03:08.199Z,53.99
2023-05-09T03:05:35.368Z,53.74
2023-05-09T03:08:02.379Z,54.11
2023-05-09T03:10:30.050Z,54.21
2023-05-09T03:12:57.148Z,54.36
2023-05-09T03:15:24.133Z,54.34
2023-05-09T03:17:51.637Z,54.21
2023-05-09T03:20:19.361Z,54.17
2023-05-09T03:22:48.487Z,54.38
2023-05-09T03:25:17.028Z,54.29
2023-05-09T03:27:44.820Z,54.45
2023-05-09T03:30:15.040Z,54.32
2023-05-09T03:32:44.449Z,54.38
2023-05-09T03:35:11.371Z,54.62
2023-05-09T03:37:38.502Z,54.72
2023-05-09T03:40:08.084Z,54.57
2023-05-09T03:42:41.858Z,54.76
2023-05-09T03:45:09.440Z,54.59
2023-05-09T03:47:36.555Z,54.68
2023-05-09T03:50:04.358Z,54.95
2023-05-09T03:52:31.839Z,55.01
2023-05-09T03:54:59.563Z,55.05
2023-05-09T03:57:30.039Z,54.73
2023-05-09T03:59:57.785Z,55.27
2023-05-09T04:02:26.070Z,55.65
2023-05-09T04:04:53.482Z,55.62
2023-05-09T04:07:22.604Z,55.77
2023-05-09T04:09:50.403Z,55.72
2023-05-09T04:12:17.453Z,55.92
2023-05-09T04:14:48.898Z,55.65
2023-05-09T04:17:17.019Z,55.66
2023-05-09T04:19:45.339Z,55.97
2023-05-09T04:22:12.687Z,56.17
2023-05-09T04:24:40.318Z,56.05
2023-05-09T04:27:07.273Z,55.98
2023-05-09T04:29:36.482Z,55.58
2023-05-09T04:32:05.251Z,56.03
2023-05-09T04:34:32.213Z,55.56
2023-05-09T04:37:04.270Z,55.65
2023-05-09T04:39:32.405Z,55.64
2023-05-09T04:42:06.092Z,55.96
2023-05-09T04:44:33.557Z,55.94
2023-05-09T04:47:00.713Z,55.84
2023-05-09T04:49:28.432Z,56.03
2023-05-09T04:51:56.769Z,55.93
2023-05-09T04:54:23.810Z,56.15
2023-05-09T04:56:53.218Z,56.00
2023-05-09T04:59:23.607Z,55.69
2023-05-09T05:01:50.572Z,55.62
2023-05-09T05:04:18.534Z,55.79
2023-05-09T05:06:45.587Z,55.76
2023-05-09T05:09:12.784Z,55.80
2023-05-09T05:11:41.554Z,55.43
2023-05-09T05:14:12.061Z,55.34
2023-05-09T05:16:39.686Z,55.28
2023-05-09T05:19:06.660Z,55.08
2023-05-09T05:21:37.661Z,55.26
2023-05-09T05:24:05.719Z,54.92
2023-05-09T05:26:33.169Z,55.22
2023-05-09T05:29:00.964Z,54.75
2023-05-09T05:31:28.020Z,54.88
2023-05-09T05:33:55.144Z,54.84
2023-05-09T05:36:22.424Z,54.83
2023-05-09T05:38:49.464Z,54.79
2023-05-09T05:41:16.740Z,54.26
2023-05-09T05:43:44.746Z,54.41
2023-05-09T05:46:11.954Z,54.67
2023-05-09T05:48:38.946Z,54.42
2023-05-09T05:51:05.909Z,54.20
2023-05-09T05:53:33.079Z,54.44
2023-05-09T05:56:00.340Z,54.10
2023-05-09T05:58:28.148Z,54.26
2023-05-09T06:00:55.450Z,54.00
2023-05-09T06:03:22.658Z,53.84
2023-05-09T06:05:56.592Z,53.60
2023-05-09T06:08:23.810Z,53.30
2023-05-09T06:10:50.771Z,53.00
2023-05-09T06:13:17.822Z,53.19
2023-05-09T06:15:49.775Z,52.58
2023-05-09T06:18:16.763Z,52.01
2023-05-09T06:20:43.705Z,52.03
2023-05-09T06:23:10.622Z,51.64
2023-05-09T06:25:37.546Z,51.18
2023-05-09T06:28:04.650Z,50.98
2023-05-09T06:30:31.589Z,50.91
2023-05-09T06:32:59.120Z,50.76
2023-05-09T06:35:26.141Z,50.55
2023-05-09T06:37:53.092Z,49.82
2023-05-09T06:40:20.475Z,49.90
2023-05-09T06:42:47.787Z,49.63
2023-05-09T06:45:16.565Z,49.24
2023-05-09T06:47:43.789Z,49.04
2023-05-09T06:50:10.978Z,48.42
2023-05-09T06:52:37.936Z,47.58
2023-05-09T06:55:05.457Z,46.65
2023-05-09T06:57:32.588Z,46.29
2023-05-09T06:59:59.692Z,45.58
2023-05-09T07:02:27.003Z,44.69
2023-05-09T07:04:54.036Z,44.01
2023-05-09T07:07:21.014Z,43.20
2023-05-09T07:09:50.727Z,42.61
2023-05-09T07:12:20.079Z,41.39
2023-05-09T07:14:47.038Z,41.03
2023-05-09T07:17:22.723Z,39.72
2023-05-09T07:19:51.658Z,39.00
2023-05-09T07:22:18.665Z,38.19
2023-05-09T07:24:46.658Z,37.82
2023-05-09T07:27:13.931Z,37.89
2023-05-09T07:29:40.910Z,37.81
2023-05-09T07:32:08.217Z,38.01
2023-05-09T07:34:36.504Z,38.68
2023-05-09T07:37:04.233Z,39.09
2023-05-09T07:39:31.535Z,39.39
2023-05-09T07:41:58.445Z,39.66
2023-05-09T07:44:25.560Z,39.51
2023-05-09T07:46:52.705Z,40.12
2023-05-09T07:49:19.568Z,40.50
2023-05-09T07:51:46.483Z,40.72
2023-05-09T07:54:13.740Z,40.53
2023-05-09T07:56:40.658Z,40.58
2023-05-09T07:59:07.658Z,40.01
2023-05-09T08:01:34.768Z,39.09
2023-05-09T08:04:01.981Z,37.48
2023-05-09T08:06:29.130Z,36.50
2023-05-09T08:08:56.150Z,35.55
2023-05-09T08:11:23.642Z,35.41
2023-05-09T08:13:50.623Z,34.39
2023-05-09T08:16:17.684Z,33.19
2023-05-09T08:18:45.072Z,32.08
2023-05-09T08:21:12.253Z,32.03
2023-05-09T08:23:40.720Z,32.18
2023-05-09T08:26:07.669Z,31.02
2023-05-09T08:28:34.729Z,30.65
2023-05-09T08:31:01.965Z,30.06
2023-05-09T08:33:29.070Z,30.32
2023-05-09T08:35:56.541Z,30.95
2023-05-09T08:38:24.507Z,31.19
2023-05-09T08:40:51.736Z,31.05
2023-05-09T08:43:21.337Z,31.95
2023-05-09T08:45:54.529Z,33.23
2023-05-09T08:48:22.850Z,34.59
2023-05-09T08:50:50.245Z,35.15
2023-05-09T08:53:17.556Z,34.91
2023-05-09T08:55:44.924Z,36.53
2023-05-09T08:58:13.634Z,36.23
2023-05-09T09:00:41.766Z,36.94
2023-05-09T09:03:09.046Z,37.45
2023-05-09T09:05:42.062Z,38.02
2023-05-09T09:08:11.055Z,38.41
2023-05-09T09:10:42.786Z,38.95
2023-05-09T09:13:12.789Z,39.50
2023-05-09T09:15:43.535Z,39.88
2023-05-09T09:18:13.221Z,40.53
2023-05-09T09:20:57.030Z,41.73
2023-05-09T09:23:26.548Z,42.27
2023-05-09T09:26:02.105Z,42.67
2023-05-09T09:28:29.689Z,43.53
2023-05-09T09:30:56.974Z,44.30
2023-05-09T09:33:26.526Z,44.46
2023-05-09T09:35:56.237Z,43.58
2023-05-09T09:38:24.994Z,44.81
2023-05-09T09:40:52.010Z,45.41
2023-05-09T09:43:19.679Z,46.06
2023-05-09T09:45:52.921Z,47.02
2023-05-09T09:48:25.219Z,47.76
2023-05-09T09:50:54.979Z,49.09
2023-05-09T09:53:22.091Z,50.49
2023-05-09T09:55:52.265Z,50.99
2023-05-09T09:58:25.238Z,52.14
2023-05-09T10:01:14.229Z,53.56
2023-05-09T10:03:43.297Z,53.35
2023-05-09T10:06:16.214Z,53.72
2023-05-09T10:08:49.398Z,53.18
2023-05-09T10:11:16.724Z,54.06
2023-05-09T10:13:45.533Z,53.95
2023-05-09T10:16:13.940Z,54.25
2023-05-09T10:18:43.035Z,55.01
2023-05-09T10:21:14.170Z,54.96
2023-05-09T10:23:46.528Z,54.48
2023-05-09T10:26:29.202Z,53.83
2023-05-09T10:28:58.190Z,53.24
2023-05-09T10:31:29.504Z,51.67
2023-05-09T10:33:57.290Z,51.70
2023-05-09T10:36:25.101Z,51.61
2023-05-09T10:38:54.816Z,50.91
2023-05-09T10:41:22.471Z,51.31
2023-05-09T10:43:50.388Z,51.26
2023-05-09T10:46:18.167Z,51.04
2023-05-09T10:48:46.863Z,51.70
2023-05-09T10:51:14.601Z,52.15
2023-05-09T10:53:50.174Z,52.94
2023-05-09T10:56:31.957Z,52.56
2023-05-09T10:59:00.969Z,52.70
2023-05-09T11:01:39.629Z,53.07
2023-05-09T11:04:12.025Z,53.33
2023-05-09T11:06:44.877Z,52.66
2023-05-09T11:09:33.311Z,50.08
2023-05-09T11:12:06.480Z,51.94
2023-05-09T11:14:37.386Z,51.76
2023-05-09T11:17:07.832Z,52.73
2023-05-09T11:19:58.345Z,54.51
2023-05-09T11:22:32.710Z,55.46
2023-05-09T11:25:10.735Z,55.34
2023-05-09T11:27:49.773Z,56.29
2023-05-09T11:30:20.755Z,55.34
2023-05-09T11:32:55.360Z,55.93
2023-05-09T11:35:23.725Z,56.22
2023-05-09T11:38:00.597Z,56.16
2023-05-09T11:40:28.861Z,55.76
2023-05-09T11:42:58.353Z,55.69
2023-05-09T11:45:28.446Z,54.55
2023-05-09T11:47:57.150Z,53.47
2023-05-09T11:50:25.446Z,51.84
2023-05-09T11:52:54.141Z,51.16
2023-05-09T11:55:23.050Z,50.29
2023-05-09T11:57:54.630Z,49.43
2023-05-09T12:00:24.099Z,51.55
2023-05-09T12:02:51.907Z,52.50
2023-05-09T12:05:21.470Z,52.47
2023-05-09T12:07:49.153Z,52.99
2023-05-09T12:10:19.627Z,52.35
2023-05-09T12:12:48.878Z,53.60
2023-05-09T12:15:17.374Z,52.72
2023-05-09T12:17:47.411Z,52.23
2023-05-09T12:20:16.329Z,52.43
2023-05-09T12:22:44.157Z,54.38
2023-05-09T12:25:12.633Z,55.04
2023-05-09T12:27:41.444Z,54.85
2023-05-09T12:30:14.259Z,55.25
2023-05-09T12:32:42.971Z,55.22
2023-05-09T12:35:10.982Z,55.67
2023-05-09T12:37:39.527Z,55.62
2023-05-09T12:40:15.612Z,55.32
2023-05-09T12:42:46.370Z,55.76
2023-05-09T12:45:14.671Z,55.75
2023-05-09T12:47:42.209Z,55.55
2023-05-09T12:50:14.368Z,56.91
2023-05-09T12:53:01.295Z,57.58
2023-05-09T12:55:31.974Z,57.68
2023-05-09T12:58:01.973Z,58.58
2023-05-09T13:00:41.423Z,58.55
2023-05-09T13:03:25.301Z,58.48
2023-05-09T13:05:56.929Z,59.79
2023-05-09T13:08:24.568Z,59.26
2023-05-09T13:10:57.752Z,59.84
2023-05-09T13:13:31.850Z,60.65
2023-05-09T13:15:58.966Z,60.39
2023-05-09T13:18:26.126Z,58.59
2023-05-09T13:20:53.142Z,57.19
2023-05-09T13:23:20.274Z,56.73
2023-05-09T13:25:47.385Z,58.08
2023-05-09T13:28:15.392Z,56.03
2023-05-09T13:30:42.442Z,48.68
2023-05-09T13:33:24.475Z,49.17
2023-05-09T13:35:52.692Z,49.25
2023-05-09T13:38:19.690Z,50.04
2023-05-09T13:40:47.164Z,50.00
2023-05-09T13:43:19.719Z,48.83
2023-05-09T13:45:47.101Z,48.53
2023-05-09T13:48:14.097Z,48.35
2023-05-09T13:50:41.810Z,47.71
2023-05-09T13:53:11.935Z,48.30
2023-05-09T13:55:39.193Z,48.04
2023-05-09T13:58:06.650Z,48.10
2023-05-09T14:00:37.305Z,48.38
2023-05-09T14:03:04.463Z,48.31
2023-05-09T14:05:32.437Z,48.51
2023-05-09T14:07:59.757Z,48.70
2023-05-09T14:10:27.471Z,49.33
2023-05-09T14:12:54.791Z,50.11
2023-05-09T14:15:21.751Z,48.89
2023-05-09T14:17:51.974Z,48.70
2023-05-09T14:20:18.977Z,48.06
2023-05-09T14:22:46.653Z,50.62
2023-05-09T14:25:13.828Z,48.77
2023-05-09T14:27:40.847Z,48.19
2023-05-09T14:30:08.867Z,46.48
2023-05-09T14:32:36.478Z,45.36
2023-05-09T14:35:04.003Z,46.21
2023-05-09T14:37:31.963Z,46.85
2023-05-09T14:40:05.565Z,46.40
2023-05-09T14:42:33.064Z,45.94
2023-05-09T14:45:00.230Z,47.42
2023-05-09T14:47:27.369Z,47.19
2023-05-09T14:49:54.665Z,45.42
2023-05-09T14:52:21.891Z,46.13
2023-05-09T14:54:49.188Z,47.52
2023-05-09T14:57:16.350Z,47.15
2023-05-09T14:59:43.310Z,45.99
2023-05-09T15:02:10.261Z,46.26
2023-05-09T15:04:37.808Z,45.80
2023-05-09T15:07:06.168Z,47.61
2023-05-09T15:09:33.165Z,49.10
2023-05-09T15:12:00.207Z,47.86
2023-05-09T15:14:27.403Z,48.14
2023-05-09T15:16:55.666Z,48.98
2023-05-09T15:19:23.646Z,49.58
2023-05-09T15:21:50.736Z,49.04
2023-05-09T15:24:17.695Z,48.90
2023-05-09T15:26:44.791Z,48.96
2023-05-09T15:29:11.797Z,49.48
2023-05-09T15:31:38.904Z,49.64
2023-05-09T15:34:05.919Z,49.80
2023-05-09T15:36:34.162Z,49.95
2023-05-09T15:39:01.405Z,49.93
2023-05-09T15:41:29.248Z,49.50
2023-05-09T15:43:59.617Z,50.40
2023-05-09T15:46:30.042Z,50.12
2023-05-09T15:48:58.496Z,49.84
2023-05-09T15:51:25.886Z,50.78
2023-05-09T15:53:53.012Z,50.61
2023-05-09T15:56:20.425Z,51.03
2023-05-09T15:58:48.109Z,52.11
2023-05-09T16:01:15.198Z,53.98
2023-05-09T16:03:43.483Z,55.72
2023-05-09T16:06:13.765Z,56.33
2023-05-09T16:08:41.782Z,56.53
2023-05-09T16:11:10.374Z,56.58
2023-05-09T16:13:38.630Z,57.89
2023-05-09T16:16:06.415Z,58.01
2023-05-09T16:18:33.506Z,58.63
2023-05-09T16:21:00.862Z,59.70
2023-05-09T16:23:27.823Z,60.18
2023-05-09T16:25:55.174Z,60.30
2023-05-09T16:28:28.161Z,61.13
2023-05-09T16:30:55.349Z,61.94
2023-05-09T16:33:22.475Z,62.81
2023-05-09T16:35:49.565Z,63.34
2023-05-09T16:38:16.473Z,63.92
2023-05-09T16:40:43.485Z,64.49
2023-05-09T16:43:10.692Z,65.17
2023-05-09T16:45:37.699Z,65.44
2023-05-09T16:48:05.051Z,65.22
2023-05-09T16:50:32.225Z,66.40
2023-05-09T16:52:59.517Z,66.94
2023-05-09T16:55:26.897Z,67.62
2023-05-09T16:57:53.905Z,68.55
2023-05-09T17:00:21.973Z,68.68
2023-05-09T17:02:48.940Z,69.67
2023-05-09T17:05:15.949Z,69.82
2023-05-09T17:07:42.863Z,70.11
2023-05-09T17:10:10.650Z,69.68
2023-05-09T17:12:39.912Z,70.28
2023-05-09T17:15:08.672Z,70.07
2023-05-09T17:17:36.060Z,70.47
2023-05-09T17:20:04.479Z,70.32
2023-05-09T17:22:31.581Z,70.58
2023-05-09T17:24:58.553Z,71.06
2023-05-09T17:27:27.186Z,71.94
2023-05-09T17:29:54.131Z,72.38
2023-05-09T17:32:21.367Z,73.04
2023-05-09T17:34:48.413Z,72.89
2023-05-09T17:37:15.468Z,73.10
2023-05-09T17:39:42.722Z,72.11
2023-05-09T17:42:10.653Z,72.28
2023-05-09T17:44:39.082Z,72.44
2023-05-09T17:47:06.586Z,71.48
2023-05-09T17:49:33.740Z,71.52
2023-05-09T17:52:01.458Z,71.79
2023-05-09T17:54:29.325Z,70.78
2023-05-09T17:56:59.277Z,70.44
2023-05-09T17:59:26.273Z,70.12
2023-05-09T18:01:54.822Z,70.06
2023-05-09T18:04:21.964Z,69.92
2023-05-09T18:06:50.057Z,69.38
2023-05-09T18:09:17.618Z,69.85
2023-05-09T18:11:44.700Z,69.25
2023-05-09T18:14:12.994Z,69.85
2023-05-09T18:16:40.215Z,69.45
2023-05-09T18:19:07.286Z,68.91
2023-05-09T18:21:34.541Z,68.52
2023-05-09T18:24:01.542Z,68.78
2023-05-09T18:26:31.361Z,68.38
2023-05-09T18:28:58.397Z,68.06
2023-05-09T18:31:25.372Z,66.37
2023-05-09T18:33:52.679Z,64.61
2023-05-09T18:36:30.139Z,62.01
2023-05-09T18:38:57.147Z,61.09
2023-05-09T18:41:25.009Z,60.69
2023-05-09T18:43:52.819Z,60.19
2023-05-09T18:46:22.630Z,59.41
2023-05-09T18:48:53.014Z,58.12
2023-05-09T18:51:20.883Z,58.04
2023-05-09T18:53:47.940Z,57.41
2023-05-09T18:56:15.027Z,57.69
2023-05-09T18:58:41.897Z,57.43
2023-05-09T19:01:11.617Z,57.33
2023-05-09T19:03:46.043Z,57.71
2023-05-09T19:06:14.097Z,57.85
2023-05-09T19:08:42.475Z,58.24
2023-05-09T19:11:11.769Z,58.92
2023-05-09T19:13:40.853Z,59.71
2023-05-09T19:16:08.952Z,60.88
2023-05-09T19:18:36.021Z,60.63
2023-05-09T19:21:03.309Z,61.25
2023-05-09T19:23:40.582Z,61.39
2023-05-09T19:26:11.607Z,62.58
2023-05-09T19:28:38.725Z,63.30
2023-05-09T19:31:05.989Z,64.18
2023-05-09T19:33:34.042Z,64.01
2023-05-09T19:36:01.835Z,64.58
2023-05-09T19:38:29.734Z,64.61
2023-05-09T19:40:57.882Z,64.82
2023-05-09T19:43:25.510Z,64.48
2023-05-09T19:45:53.053Z,65.17
2023-05-09T19:48:20.468Z,65.79
2023-05-09T19:50:47.537Z,65.52
2023-05-09T19:53:15.267Z,65.62
2023-05-09T19:55:46.811Z,65.48
2023-05-09T19:58:17.658Z,65.07
2023-05-09T20:00:45.519Z,64.90
2023-05-09T20:03:12.850Z,64.90
2023-05-09T20:08:25.695Z,64.14
2023-05-09T20:10:53.125Z,64.27
2023-05-09T20:13:20.552Z,63.51
2023-05-09T20:15:50.383Z,63.15
2023-05-09T20:18:19.954Z,62.91
2023-05-09T20:20:50.085Z,62.29
2023-05-09T20:23:18.122Z,62.08
2023-05-09T20:25:44.916Z,61.81
2023-05-09T20:28:12.402Z,61.70
2023-05-09T20:30:43.480Z,61.31
2023-05-09T20:33:10.397Z,61.30
2023-05-09T20:35:39.194Z,61.02
2023-05-09T20:38:06.236Z,60.77
2023-05-09T20:40:33.344Z,60.56
2023-05-09T20:43:00.235Z,59.80
2023-05-09T20:45:29.789Z,59.25
2023-05-09T20:47:56.882Z,59.20
2023-05-09T20:50:23.893Z,59.45
2023-05-09T20:52:50.827Z,58.59
2023-05-09T20:55:17.791Z,59.11
2023-05-09T20:57:47.128Z,58.68
2023-05-09T21:00:14.479Z,58.27
2023-05-09T21:02:43.387Z,58.31
2023-05-09T21:05:10.495Z,57.87
2023-05-09T21:07:37.384Z,57.63
2023-05-09T21:10:04.571Z,57.67
2023-05-09T21:12:32.854Z,57.44
2023-05-09T21:14:59.877Z,57.57
2023-05-09T21:17:26.756Z,57.27
2023-05-09T21:19:53.669Z,57.24
2023-05-09T21:22:20.655Z,57.33
2023-05-09T21:24:47.551Z,56.98
2023-05-09T21:27:14.552Z,56.99
2023-05-09T21:29:41.486Z,56.98
2023-05-09T21:32:08.370Z,57.50
2023-05-09T21:34:35.893Z,57.25
2023-05-09T21:37:02.795Z,57.34
2023-05-09T21:39:29.874Z,57.76
2023-05-09T21:41:58.121Z,57.73
2023-05-09T21:44:25.315Z,57.63
2023-05-09T21:46:52.225Z,57.92
2023-05-09T21:49:21.602Z,57.25
2023-05-09T21:51:48.578Z,56.23
2023-05-09T21:54:15.421Z,56.92
2023-05-09T21:56:42.735Z,57.13
2023-05-09T21:59:09.665Z,57.17
2023-05-09T22:01:37.080Z,57.25
2023-05-09T22:04:04.846Z,57.09
2023-05-09T22:06:32.599Z,57.21
2023-05-09T22:08:59.464Z,57.04
2023-05-09T22:11:26.507Z,56.98
2023-05-09T22:13:53.552Z,57.33
2023-05-09T22:16:22.390Z,56.85
2023-05-09T22:18:49.428Z,57.04
2023-05-09T22:21:16.385Z,57.15
2023-05-09T22:23:44.247Z,57.29
2023-05-09T22:26:11.255Z,57.32
2023-05-09T22:28:38.125Z,57.21
2023-05-09T22:31:08.294Z,57.23
2023-05-09T22:33:35.279Z,57.40
2023-05-09T22:36:02.332Z,57.44
2023-05-09T22:38:29.289Z,57.49
2023-05-09T22:40:56.206Z,57.19
2023-05-09T22:43:24.180Z,57.17
2023-05-09T22:45:52.868Z,57.28
2023-05-09T22:48:19.863Z,57.02
2023-05-09T22:50:47.014Z,57.03
2023-05-09T22:53:14.001Z,57.30
2023-05-09T22:55:40.959Z,57.30
2023-05-09T22:58:08.525Z,57.13
2023-05-09T23:00:35.751Z,57.44
2023-05-09T23:03:04.596Z,57.09
2023-05-09T23:05:31.898Z,57.39
2023-05-09T23:07:58.857Z,57.07
2023-05-09T23:10:27.259Z,57.04
2023-05-09T23:12:54.224Z,57.40
2023-05-09T23:15:21.248Z,57.67
2023-05-09T23:17:48.430Z,57.48
2023-05-09T23:20:16.051Z,57.60
2023-05-09T23:22:43.205Z,57.39
2023-05-09T23:25:10.500Z,57.39
2023-05-09T23:27:40.564Z,56.82
2023-05-09T23:30:11.563Z,57.13
2023-05-09T23:32:38.620Z,57.15
2023-05-09T23:35:06.028Z,57.20
2023-05-09T23:37:32.956Z,57.41
2023-05-09T23:39:59.871Z,57.30
2023-05-09T23:42:27.254Z,57.46
2023-05-09T23:44:54.200Z,57.31
2023-05-09T23:47:21.262Z,57.62
2023-05-09T23:49:48.290Z,57.55
2023-05-09T23:52:15.591Z,57.46
2023-05-09T23:54:42.623Z,57.19
2023-05-09T23:57:09.871Z,57.10
2023-05-09T23:59:36.860Z,57.13
